Time;durP1;ratioP1;P1;durP2;ratioP2;P2;SDS_P1;SDS_P2;PMS_P1;PMS_P2;Temp;Humidity;BMP_temperature;BMP_pressure;BME280_temperature;BME280_humidity;BME280_pressure;Samples;Min_cycle;Max_cycle;Signal;HPM_P1;HPM_P2
2022/01/07 00:02:20;;;;;;;8.83;4.53;;;3.90;99.90;;;;;;4970533;28;20204;-76
2022/01/07 00:04:47;;;;;;;9.60;4.27;;;3.90;99.90;;;;;;4978238;28;20192;-76
2022/01/07 00:07:15;;;;;;;10.83;4.00;;;4.00;99.90;;;;;;4963172;28;20212;-76
2022/01/07 00:09:42;;;;;;;8.40;3.63;;;3.90;99.90;;;;;;5008057;28;20551;-76
2022/01/07 00:12:10;;;;;;;8.93;3.63;;;3.90;99.90;;;;;;4976923;28;20212;-76
2022/01/07 00:14:38;;;;;;;8.37;4.33;;;3.90;99.90;;;;;;4981260;28;20197;-76
2022/01/07 00:17:05;;;;;;;9.00;3.30;;;3.90;99.90;;;;;;4995825;28;20204;-76
2022/01/07 00:19:35;;;;;;;10.30;3.97;;;4.00;99.90;;;;;;4986041;28;20215;-76
2022/01/07 00:22:02;;;;;;;11.00;4.27;;;4.00;99.90;;;;;;4994568;28;20200;-76
2022/01/07 00:24:29;;;;;;;8.97;5.20;;;3.90;99.90;;;;;;4997550;28;20586;-76
2022/01/07 00:26:57;;;;;;;8.83;4.27;;;4.00;99.90;;;;;;4996946;28;20202;-76
2022/01/07 00:29:24;;;;;;;10.90;4.43;;;4.00;99.90;;;;;;4983833;28;20234;-76
2022/01/07 00:31:51;;;;;;;11.13;3.80;;;3.90;99.90;;;;;;4995118;28;20199;-76
2022/01/07 00:34:19;;;;;;;8.00;3.70;;;3.90;99.90;;;;;;4995560;28;20210;-76
2022/01/07 00:36:48;;;;;;;7.77;3.70;;;4.00;99.90;;;;;;4993356;28;20212;-76
2022/01/07 00:39:15;;;;;;;8.87;3.57;;;4.00;99.90;;;;;;4995312;28;20231;-76
2022/01/07 00:41:42;;;;;;;8.93;4.00;;;4.00;99.90;;;;;;4983983;28;20212;-76
2022/01/07 00:44:10;;;;;;;6.53;3.53;;;4.00;99.90;;;;;;4984812;28;20222;-76
2022/01/07 00:46:47;;;;;;;8.60;4.10;;;3.90;99.90;;;;;;4992228;28;20207;-76
2022/01/07 00:49:21;;;;;;;8.07;3.73;;;3.90;99.90;;;;;;4995550;28;20212;-76
2022/01/07 00:51:50;;;;;;;7.50;4.00;;;3.90;99.90;;;;;;4983564;28;20205;-76
2022/01/07 00:54:17;;;;;;;9.57;4.20;;;3.90;99.90;;;;;;4976132;28;20200;-76
2022/01/07 00:56:46;;;;;;;10.03;4.50;;;3.90;99.90;;;;;;4981866;28;20557;-76
2022/01/07 00:59:13;;;;;;;8.13;4.10;;;3.90;99.90;;;;;;4992853;28;20228;-76
2022/01/07 01:01:42;;;;;;;8.47;4.40;;;3.90;99.90;;;;;;4998481;28;20271;-76
2022/01/07 01:04:09;;;;;;;10.60;3.90;;;4.00;99.90;;;;;;4976863;28;20220;-76
2022/01/07 01:06:40;;;;;;;8.20;4.03;;;4.00;99.90;;;;;;4982180;28;20207;-76
2022/01/07 01:09:09;;;;;;;10.10;4.47;;;3.90;99.90;;;;;;4991729;28;20550;-76
2022/01/07 01:11:37;;;;;;;7.20;4.53;;;4.00;99.90;;;;;;4975868;28;20206;-76
2022/01/07 01:14:05;;;;;;;8.47;4.03;;;4.00;99.90;;;;;;4989664;28;20205;-76
2022/01/07 01:16:34;;;;;;;8.20;3.90;;;4.00;99.90;;;;;;4999679;28;20192;-76
2022/01/07 01:19:01;;;;;;;7.13;4.17;;;3.90;99.90;;;;;;4974034;28;20220;-76
2022/01/07 01:21:41;;;;;;;5.17;3.33;;;3.90;99.90;;;;;;4979924;28;20203;-76
2022/01/07 01:24:10;;;;;;;9.13;3.80;;;3.90;99.90;;;;;;4992618;28;20197;-76
2022/01/07 01:26:37;;;;;;;7.20;3.73;;;4.00;99.90;;;;;;4997195;28;20207;-76
2022/01/07 01:29:05;;;;;;;7.83;4.10;;;4.00;99.90;;;;;;4992131;28;20672;-76
2022/01/07 01:31:35;;;;;;;7.17;3.60;;;4.00;99.90;;;;;;4974950;28;20205;-76
2022/01/07 01:34:04;;;;;;;9.67;4.77;;;4.00;99.90;;;;;;4988634;28;20250;-76
2022/01/07 01:36:32;;;;;;;6.30;3.80;;;4.00;99.90;;;;;;4987280;28;20230;-76
2022/01/07 01:39:00;;;;;;;9.90;4.83;;;4.00;99.90;;;;;;5001143;28;20225;-76
2022/01/07 01:41:29;;;;;;;6.03;3.53;;;4.00;99.90;;;;;;4980960;28;20211;-76
2022/01/07 01:43:57;;;;;;;5.70;3.87;;;4.00;99.90;;;;;;4992210;28;20211;-76
2022/01/07 01:46:24;;;;;;;9.63;4.57;;;4.00;99.90;;;;;;4977031;28;20205;-76
2022/01/07 01:48:51;;;;;;;5.60;4.00;;;4.00;99.90;;;;;;4984836;28;20226;-76
2022/01/07 01:51:19;;;;;;;7.40;4.70;;;4.00;99.90;;;;;;4977030;28;20222;-76
2022/01/07 01:53:46;;;;;;;6.53;3.73;;;4.00;99.90;;;;;;4987972;28;20215;-76
2022/01/07 01:56:14;;;;;;;7.73;4.10;;;4.00;99.90;;;;;;4972907;28;20203;-76
2022/01/07 01:58:42;;;;;;;6.53;4.07;;;4.00;99.90;;;;;;4982414;28;20230;-76
2022/01/07 02:01:10;;;;;;;7.87;4.47;;;4.00;99.90;;;;;;4994358;28;20200;-76
2022/01/07 02:03:37;;;;;;;8.63;4.50;;;4.00;99.90;;;;;;4990831;28;20216;-76
2022/01/07 02:06:05;;;;;;;7.50;4.10;;;4.00;99.90;;;;;;4987958;28;20201;-76
2022/01/07 02:08:32;;;;;;;7.57;4.43;;;4.00;99.90;;;;;;4982237;28;20598;-76
2022/01/07 02:11:00;;;;;;;9.30;4.30;;;4.00;99.90;;;;;;4977325;28;20982;-76
2022/01/07 02:13:27;;;;;;;8.23;4.53;;;4.00;99.90;;;;;;4996898;28;20198;-76
2022/01/07 02:15:56;;;;;;;10.63;4.77;;;4.00;99.90;;;;;;5002174;28;20195;-76
2022/01/07 02:18:23;;;;;;;6.13;4.20;;;4.00;99.90;;;;;;4989960;28;20220;-76
2022/01/07 02:20:52;;;;;;;6.90;4.67;;;4.00;99.90;;;;;;4994483;28;20198;-76
2022/01/07 02:23:48;;;;;;;7.43;4.10;;;4.00;99.90;;;;;;4993512;28;20192;-76
2022/01/07 02:26:17;;;;;;;9.07;4.63;;;4.00;99.90;;;;;;4972803;28;20208;-76
2022/01/07 02:28:44;;;;;;;7.03;4.23;;;4.00;99.90;;;;;;4982220;28;20224;-76
2022/01/07 02:31:12;;;;;;;10.97;4.90;;;4.00;99.90;;;;;;4976209;28;20583;-76
2022/01/07 02:33:39;;;;;;;8.37;4.83;;;4.00;99.90;;;;;;4974532;28;20209;-76
2022/01/07 02:36:09;;;;;;;9.97;3.93;;;4.00;99.90;;;;;;4986897;28;20212;-76
2022/01/07 02:38:38;;;;;;;8.30;4.37;;;3.90;99.90;;;;;;4997453;28;20243;-76
2022/01/07 02:41:05;;;;;;;7.70;4.30;;;3.90;99.90;;;;;;4991036;28;20204;-76
2022/01/07 02:43:32;;;;;;;7.60;4.07;;;3.90;99.90;;;;;;4981734;28;20562;-76
2022/01/07 02:46:00;;;;;;;8.53;4.27;;;3.80;99.90;;;;;;4981544;28;20219;-76
2022/01/07 02:48:27;;;;;;;7.80;5.10;;;3.80;99.90;;;;;;4973965;28;20527;-76
2022/01/07 02:50:55;;;;;;;7.13;3.63;;;3.80;99.90;;;;;;4979386;28;20212;-76
2022/01/07 02:53:24;;;;;;;6.87;4.47;;;3.80;99.90;;;;;;5000488;28;20215;-76
2022/01/07 02:56:13;;;;;;;6.73;4.40;;;3.80;99.90;;;;;;4979865;28;20192;-76
2022/01/07 02:58:40;;;;;;;7.93;4.60;;;3.70;99.90;;;;;;4992973;28;20598;-76
2022/01/07 03:01:08;;;;;;;6.43;4.83;;;3.70;99.90;;;;;;4978591;28;20202;-76
2022/01/07 03:03:35;;;;;;;9.07;5.60;;;3.60;99.90;;;;;;5002303;28;20669;-76
2022/01/07 03:06:03;;;;;;;7.60;4.47;;;3.60;99.90;;;;;;4981317;28;20200;-77
2022/01/07 03:08:32;;;;;;;5.60;4.43;;;3.60;99.90;;;;;;4980270;28;20228;-76
2022/01/07 03:10:59;;;;;;;10.70;4.67;;;3.50;99.90;;;;;;4977041;28;20208;-76
2022/01/07 03:13:26;;;;;;;8.57;4.77;;;3.50;99.90;;;;;;5003928;28;20211;-76
2022/01/07 03:15:54;;;;;;;11.40;5.27;;;3.50;99.90;;;;;;4983976;28;20195;-76
2022/01/07 03:18:21;;;;;;;9.47;5.20;;;3.50;99.90;;;;;;4995612;28;20220;-76
2022/01/07 03:20:49;;;;;;;9.93;4.97;;;3.40;99.90;;;;;;4983037;28;20207;-76
2022/01/07 03:23:16;;;;;;;8.93;5.57;;;3.40;99.90;;;;;;5001429;28;20204;-76
2022/01/07 03:25:45;;;;;;;7.57;5.50;;;3.30;99.90;;;;;;5000114;28;20207;-76
2022/01/07 03:28:13;;;;;;;10.70;5.40;;;3.30;99.90;;;;;;4985966;28;20199;-76
2022/01/07 03:30:41;;;;;;;11.13;5.43;;;3.20;99.90;;;;;;4997541;28;20227;-76
2022/01/07 03:33:08;;;;;;;8.77;5.30;;;3.30;99.90;;;;;;4989318;28;20209;-76
2022/01/07 03:35:36;;;;;;;9.10;5.47;;;3.20;99.90;;;;;;4985230;28;20213;-76
2022/01/07 03:38:04;;;;;;;11.43;5.80;;;3.20;99.90;;;;;;4985229;28;20215;-76
2022/01/07 03:40:32;;;;;;;9.57;5.50;;;3.20;99.90;;;;;;4985854;28;20197;-76
2022/01/07 03:43:01;;;;;;;9.27;5.20;;;3.10;99.90;;;;;;4993902;28;20202;-76
2022/01/07 03:45:29;;;;;;;10.40;5.20;;;3.10;99.90;;;;;;4990567;28;20224;-76
2022/01/07 03:47:57;;;;;;;10.37;5.17;;;3.10;99.90;;;;;;4973257;28;20562;-77
2022/01/07 03:50:26;;;;;;;9.13;5.70;;;3.10;99.90;;;;;;4979649;28;20215;-76
2022/01/07 03:52:56;;;;;;;7.73;5.63;;;3.10;99.90;;;;;;4997760;28;20212;-76
2022/01/07 03:55:25;;;;;;;6.70;4.67;;;3.10;99.90;;;;;;4980867;28;20211;-76
2022/01/07 03:57:53;;;;;;;7.27;4.77;;;3.00;99.90;;;;;;4985216;28;20205;-76
2022/01/07 04:00:25;;;;;;;9.57;5.77;;;3.00;99.90;;;;;;4999661;28;20213;-76
2022/01/07 04:02:53;;;;;;;10.03;5.83;;;3.00;99.90;;;;;;4972728;28;20213;-76
2022/01/07 04:05:22;;;;;;;9.90;4.70;;;3.00;99.90;;;;;;5004947;28;20203;-76
2022/01/07 04:07:50;;;;;;;10.07;5.87;;;3.00;99.90;;;;;;4988989;28;20666;-76
2022/01/07 04:10:18;;;;;;;7.77;5.47;;;3.00;99.90;;;;;;4982391;28;20225;-76
2022/01/07 04:12:45;;;;;;;7.30;4.83;;;3.00;99.90;;;;;;4985391;28;20677;-76
2022/01/07 04:15:13;;;;;;;7.00;5.23;;;3.00;99.90;;;;;;4971745;28;20207;-76
2022/01/07 04:17:45;;;;;;;8.63;5.53;;;3.00;99.90;;;;;;4982027;28;20208;-76
2022/01/07 04:20:15;;;;;;;8.33;5.20;;;3.00;99.90;;;;;;4976843;28;20223;-76
2022/01/07 04:22:43;;;;;;;8.60;5.17;;;3.00;99.90;;;;;;5001019;28;20573;-76
2022/01/07 04:25:17;;;;;;;6.47;5.17;;;3.00;99.90;;;;;;4976647;28;20209;-76
2022/01/07 04:27:46;;;;;;;8.30;5.53;;;2.90;99.90;;;;;;4972246;28;20204;-76
2022/01/07 04:30:15;;;;;;;8.00;4.90;;;3.00;99.90;;;;;;4982931;28;20228;-76
2022/01/07 04:32:44;;;;;;;8.23;5.13;;;2.90;99.90;;;;;;4982965;28;20227;-76
2022/01/07 04:35:12;;;;;;;7.83;4.80;;;3.00;99.90;;;;;;4985294;28;20200;-76
2022/01/07 04:37:40;;;;;;;7.57;5.30;;;3.00;99.90;;;;;;5008269;28;20204;-76
2022/01/07 04:40:11;;;;;;;7.93;5.10;;;3.10;99.90;;;;;;5005151;28;20224;-76
2022/01/07 04:42:38;;;;;;;8.93;4.37;;;3.10;99.90;;;;;;4978682;28;20193;-76
2022/01/07 04:45:07;;;;;;;10.10;5.30;;;3.10;99.90;;;;;;4990353;28;20199;-76
2022/01/07 04:47:36;;;;;;;9.50;4.77;;;3.20;99.90;;;;;;5002821;28;20217;-76
2022/01/07 04:50:08;;;;;;;7.93;4.57;;;3.20;99.90;;;;;;4983704;28;20212;-76
2022/01/07 04:52:44;;;;;;;8.67;4.13;;;3.20;99.90;;;;;;4997001;28;20204;-76
2022/01/07 04:55:12;;;;;;;11.50;5.40;;;3.20;99.90;;;;;;4992512;28;20200;-76
2022/01/07 04:57:39;;;;;;;9.33;4.70;;;3.20;99.90;;;;;;4975901;28;20211;-76
2022/01/07 05:00:08;;;;;;;6.57;4.50;;;3.20;99.90;;;;;;4980255;28;20584;-76
2022/01/07 05:02:35;;;;;;;7.57;4.40;;;3.30;99.90;;;;;;4992288;28;20203;-76
2022/01/07 05:05:03;;;;;;;7.10;4.43;;;3.20;99.90;;;;;;4975436;28;20212;-76
2022/01/07 05:07:33;;;;;;;8.40;4.17;;;3.20;99.90;;;;;;4997670;28;20198;-76
2022/01/07 05:10:01;;;;;;;6.50;3.87;;;3.20;99.90;;;;;;4981077;28;20219;-76
2022/01/07 05:12:32;;;;;;;8.37;4.27;;;3.20;99.90;;;;;;4979897;28;20243;-76
2022/01/07 05:15:00;;;;;;;8.07;4.47;;;3.20;99.90;;;;;;4997769;28;20207;-76
2022/01/07 05:17:28;;;;;;;5.30;3.87;;;3.30;99.90;;;;;;4977074;28;20198;-76
2022/01/07 05:19:55;;;;;;;8.63;4.27;;;3.30;99.90;;;;;;4979556;28;20232;-76
2022/01/07 05:22:22;;;;;;;5.47;4.13;;;3.30;99.90;;;;;;4992132;28;20201;-76
2022/01/07 05:24:52;;;;;;;6.47;4.23;;;3.30;99.90;;;;;;4989847;28;20197;-76
2022/01/07 05:27:19;;;;;;;12.00;4.70;;;3.30;99.90;;;;;;4991418;28;20287;-76
2022/01/07 05:29:47;;;;;;;8.03;3.93;;;3.30;99.90;;;;;;4975891;28;20227;-76
2022/01/07 05:32:14;;;;;;;6.40;4.13;;;3.30;99.90;;;;;;4977241;28;20226;-76
2022/01/07 05:34:42;;;;;;;9.07;4.30;;;3.40;99.90;;;;;;4983047;28;20212;-76
2022/01/07 05:37:10;;;;;;;5.27;3.47;;;3.40;99.90;;;;;;4980526;28;20211;-77
2022/01/07 05:39:37;;;;;;;4.77;3.60;;;3.40;99.90;;;;;;5003614;28;20237;-76
2022/01/07 05:42:32;;;;;;;5.87;3.77;;;3.40;99.90;;;;;;4977731;28;20202;-76
2022/01/07 05:45:00;;;;;;;8.97;4.10;;;3.30;99.90;;;;;;4998332;28;20193;-76
2022/01/07 05:47:27;;;;;;;7.83;4.07;;;3.30;99.90;;;;;;4971800;28;20207;-76
2022/01/07 05:50:07;;;;;;;7.73;3.50;;;3.20;99.90;;;;;;5007508;28;20227;-76
2022/01/07 05:52:35;;;;;;;5.30;4.13;;;3.10;99.90;;;;;;4981133;28;20230;-76
2022/01/07 05:55:02;;;;;;;7.10;4.40;;;3.10;99.90;;;;;;4990241;28;20204;-76
2022/01/07 05:57:29;;;;;;;5.03;3.90;;;3.00;99.90;;;;;;4999106;28;20201;-76
2022/01/07 05:59:58;;;;;;;8.67;4.20;;;3.00;99.90;;;;;;4981918;28;20227;-76
2022/01/07 06:02:26;;;;;;;7.50;3.73;;;3.00;99.90;;;;;;4996488;28;20200;-76
2022/01/07 06:05:00;;;;;;;7.47;4.40;;;3.00;99.90;;;;;;4982236;28;20221;-76
2022/01/07 06:07:28;;;;;;;8.97;4.97;;;3.00;99.90;;;;;;4970755;28;20230;-76
2022/01/07 06:09:55;;;;;;;7.10;4.67;;;2.90;99.90;;;;;;4971109;28;20235;-76
2022/01/07 06:12:22;;;;;;;5.47;4.20;;;3.00;99.90;;;;;;4996181;28;20227;-76
2022/01/07 06:14:50;;;;;;;7.03;4.50;;;2.80;99.90;;;;;;4992468;28;20216;-76
2022/01/07 06:17:18;;;;;;;7.47;4.83;;;2.80;99.90;;;;;;5003800;28;20200;-76
2022/01/07 06:19:46;;;;;;;8.17;4.07;;;2.70;99.90;;;;;;4990342;28;20694;-77
2022/01/07 06:22:14;;;;;;;6.37;3.53;;;2.90;99.90;;;;;;4994159;28;20236;-78
2022/01/07 06:24:41;;;;;;;9.73;4.40;;;5.10;99.90;;;;;;4975466;28;20201;-76
2022/01/07 06:27:09;;;;;;;8.73;4.50;;;3.90;99.90;;;;;;4992715;28;20217;-76
2022/01/07 06:29:37;;;;;;;7.83;4.30;;;3.20;99.90;;;;;;4997186;28;20239;-76
2022/01/07 06:32:06;;;;;;;5.13;3.77;;;3.00;99.90;;;;;;4980908;28;20220;-75
2022/01/07 06:34:35;;;;;;;7.57;4.63;;;2.90;99.90;;;;;;4990386;28;20195;-76
2022/01/07 06:37:04;;;;;;;9.40;4.83;;;2.90;99.90;;;;;;4973796;28;20200;-77
2022/01/07 06:39:32;;;;;;;7.50;4.53;;;2.90;99.90;;;;;;4971601;28;20236;-76
2022/01/07 06:42:01;;;;;;;7.10;4.53;;;2.90;99.90;;;;;;4980371;28;20224;-76
2022/01/07 06:44:36;;;;;;;12.27;4.77;;;2.80;99.90;;;;;;4973923;28;20565;-76
2022/01/07 06:47:20;;;;;;;8.70;5.10;;;2.90;99.90;;;;;;4955031;28;20205;-76
2022/01/07 06:49:49;;;;;;;6.57;4.20;;;2.90;99.90;;;;;;4979291;28;20683;-76
2022/01/07 06:52:17;;;;;;;5.67;4.13;;;2.90;99.90;;;;;;4955342;28;20213;-76
2022/01/07 06:54:44;;;;;;;5.67;4.10;;;2.90;99.90;;;;;;4980836;28;20197;-76
2022/01/07 06:57:11;;;;;;;7.13;4.23;;;2.90;99.90;;;;;;4971562;28;20205;-76
2022/01/07 06:59:54;;;;;;;4.93;3.90;;;2.90;99.90;;;;;;4972113;28;20228;-76
2022/01/07 07:02:21;;;;;;;5.37;4.47;;;2.90;99.90;;;;;;4990345;28;20193;-77
2022/01/07 07:04:50;;;;;;;5.17;3.93;;;2.90;99.90;;;;;;4974132;28;20192;-77
2022/01/07 07:07:18;;;;;;;6.83;4.57;;;2.90;99.90;;;;;;4964035;28;20200;-76
2022/01/07 07:09:45;;;;;;;6.90;4.53;;;2.90;99.90;;;;;;4911953;28;20249;-77
2022/01/07 07:12:18;;;;;;;5.60;4.57;;;3.00;99.90;;;;;;5008556;28;20223;-77
2022/01/07 07:14:46;;;;;;;6.70;4.70;;;3.00;99.90;;;;;;4994001;28;20206;-76
2022/01/07 07:17:19;;;;;;;5.97;4.93;;;3.00;99.90;;;;;;5005986;28;20211;-76
2022/01/07 07:19:47;;;;;;;5.63;4.83;;;3.00;99.90;;;;;;5016255;28;20233;-76
2022/01/07 07:22:16;;;;;;;6.33;5.37;;;3.10;99.90;;;;;;4989150;28;20689;-78
2022/01/07 07:24:44;;;;;;;8.27;5.03;;;3.10;99.90;;;;;;5007223;28;20192;-76
2022/01/07 07:27:15;;;;;;;7.30;5.87;;;3.10;99.90;;;;;;5002576;28;20630;-76
2022/01/07 07:29:43;;;;;;;6.60;5.23;;;3.20;99.90;;;;;;5007139;28;20223;-77
2022/01/07 07:32:11;;;;;;;7.17;4.80;;;3.20;99.90;;;;;;4998734;28;20200;-76
2022/01/07 07:34:57;;;;;;;8.47;5.67;;;3.30;99.90;;;;;;5026871;28;20194;-76
2022/01/07 07:37:37;;;;;;;6.87;5.53;;;3.20;99.90;;;;;;4995231;28;20798;-76
2022/01/07 07:40:06;;;;;;;8.30;5.70;;;3.30;99.90;;;;;;5006394;28;20580;-76
2022/01/07 07:42:33;;;;;;;9.30;5.50;;;3.30;99.90;;;;;;4989461;28;20200;-76
2022/01/07 07:45:01;;;;;;;8.60;6.17;;;3.30;99.90;;;;;;4996966;28;20202;-76
2022/01/07 07:47:29;;;;;;;9.27;6.40;;;3.30;99.90;;;;;;4999982;28;20846;-77
2022/01/07 07:49:58;;;;;;;7.13;6.10;;;3.40;99.90;;;;;;4997788;28;20251;-76
2022/01/07 07:52:25;;;;;;;9.20;6.40;;;3.40;99.90;;;;;;5011675;28;20223;-75
2022/01/07 07:54:54;;;;;;;8.53;5.73;;;3.40;99.90;;;;;;4992145;28;20210;-76
2022/01/07 07:57:22;;;;;;;7.50;6.00;;;3.40;99.90;;;;;;4993463;28;20196;-75
2022/01/07 07:59:49;;;;;;;7.60;5.40;;;3.40;99.90;;;;;;5003841;28;20227;-78
2022/01/07 08:02:17;;;;;;;8.23;6.30;;;3.40;99.90;;;;;;4987646;28;20203;-75
2022/01/07 08:04:44;;;;;;;9.90;5.93;;;3.50;99.90;;;;;;5009203;28;20217;-76
2022/01/07 08:07:16;;;;;;;7.90;6.33;;;3.40;99.90;;;;;;4990050;28;20218;-76
2022/01/07 08:09:44;;;;;;;9.33;6.73;;;3.40;99.90;;;;;;5027602;28;20569;-76
2022/01/07 08:12:23;;;;;;;8.20;6.33;;;3.40;99.90;;;;;;4994407;28;20226;-75
2022/01/07 08:17:35;;;;;;;12.43;6.60;;;3.40;99.90;;;;;;5006633;28;20196;-75
2022/01/07 08:20:04;;;;;;;9.43;7.00;;;3.50;99.90;;;;;;5016226;28;20216;-75
2022/01/07 08:22:32;;;;;;;7.73;6.47;;;3.40;99.90;;;;;;4997095;28;20219;-76
2022/01/07 08:24:59;;;;;;;8.57;5.77;;;3.50;99.90;;;;;;5016561;28;20217;-75
2022/01/07 08:27:28;;;;;;;7.87;6.20;;;3.50;99.90;;;;;;5012900;28;20219;-75
2022/01/07 08:29:56;;;;;;;8.03;6.20;;;3.50;99.90;;;;;;4987305;28;20231;-75
2022/01/07 08:35:08;;;;;;;9.30;6.03;;;3.50;99.90;;;;;;5019658;28;20197;-75
2022/01/07 08:37:50;;;;;;;8.77;5.80;;;3.50;99.90;;;;;;4995843;28;20205;-75
2022/01/07 08:40:18;;;;;;;6.57;5.37;;;3.60;99.90;;;;;;5001082;28;20222;-76
2022/01/07 08:42:46;;;;;;;9.60;6.20;;;3.60;99.90;;;;;;5009855;28;20579;-75
2022/01/07 08:45:14;;;;;;;9.23;5.87;;;3.70;99.90;;;;;;5010594;28;20204;-76
2022/01/07 08:47:41;;;;;;;6.93;5.57;;;3.70;99.90;;;;;;4998472;28;20201;-76
2022/01/07 08:50:09;;;;;;;9.27;6.23;;;3.70;99.90;;;;;;5014984;28;20220;-76
2022/01/07 08:52:36;;;;;;;8.83;6.37;;;3.70;99.90;;;;;;5033645;28;20183;-76
2022/01/07 08:55:04;;;;;;;6.77;5.60;;;3.70;99.90;;;;;;5005515;28;20650;-76
2022/01/07 08:57:31;;;;;;;9.13;6.33;;;3.70;99.90;;;;;;5009891;28;20684;-76
2022/01/07 09:00:00;;;;;;;7.27;5.57;;;3.80;99.90;;;;;;4997140;28;20620;-76
2022/01/07 09:02:32;;;;;;;7.40;5.97;;;3.80;99.90;;;;;;5001717;28;20225;-76
2022/01/07 09:04:59;;;;;;;10.10;6.07;;;3.80;99.90;;;;;;5022420;28;20203;-76
2022/01/07 09:07:26;;;;;;;6.93;5.50;;;3.90;99.90;;;;;;4995643;28;20206;-76
2022/01/07 09:09:54;;;;;;;7.67;5.57;;;3.90;99.90;;;;;;4995493;28;20248;-76
2022/01/07 09:12:21;;;;;;;6.67;5.50;;;3.90;99.90;;;;;;4992103;28;20204;-76
2022/01/07 09:14:48;;;;;;;5.70;5.20;;;3.90;99.90;;;;;;4994572;28;20241;-76
2022/01/07 09:17:17;;;;;;;7.23;5.80;;;4.00;99.90;;;;;;5013184;28;20192;-75
2022/01/07 09:19:44;;;;;;;7.80;5.10;;;4.00;99.90;;;;;;4992524;28;20236;-75
2022/01/07 09:22:12;;;;;;;6.10;5.50;;;4.00;99.90;;;;;;5015920;28;20209;-76
2022/01/07 09:24:40;;;;;;;7.03;5.23;;;4.00;99.90;;;;;;4991823;28;20205;-77
2022/01/07 09:27:08;;;;;;;5.93;4.87;;;4.10;99.90;;;;;;4984658;28;20239;-75
2022/01/07 09:29:35;;;;;;;7.53;5.20;;;4.10;99.90;;;;;;5003919;28;20231;-76
2022/01/07 09:32:03;;;;;;;7.97;5.83;;;4.20;99.90;;;;;;4994670;28;20238;-77
2022/01/07 09:35:09;;;;;;;7.07;5.60;;;4.20;99.90;;;;;;4996865;28;20225;-75
2022/01/07 09:37:36;;;;;;;6.17;5.10;;;4.20;99.90;;;;;;5013816;28;20668;-76
2022/01/07 09:40:05;;;;;;;5.17;4.67;;;4.20;99.90;;;;;;5008236;28;20235;-76
2022/01/07 09:42:32;;;;;;;4.90;4.33;;;4.20;99.90;;;;;;5013663;28;20206;-77
2022/01/07 09:44:59;;;;;;;5.83;5.30;;;4.20;99.90;;;;;;5023033;28;20195;-76
2022/01/07 09:47:28;;;;;;;7.33;5.03;;;4.30;99.90;;;;;;5013034;28;20204;-75
2022/01/07 09:49:55;;;;;;;5.80;5.10;;;4.30;99.90;;;;;;5012357;28;20238;-77
2022/01/07 09:52:25;;;;;;;5.83;4.90;;;4.30;99.90;;;;;;5005791;28;20203;-76
2022/01/07 09:54:53;;;;;;;5.23;4.43;;;4.30;99.90;;;;;;5001932;28;20217;-75
2022/01/07 09:57:20;;;;;;;5.90;5.03;;;4.30;99.90;;;;;;4992317;28;20678;-76
2022/01/07 09:59:53;;;;;;;5.63;5.03;;;4.30;99.90;;;;;;5007692;28;20230;-77
2022/01/07 10:02:22;;;;;;;6.10;5.33;;;4.30;99.90;;;;;;5014044;28;20219;-76
2022/01/07 10:04:49;;;;;;;8.80;5.03;;;4.30;99.90;;;;;;5005348;28;20219;-76
2022/01/07 10:07:20;;;;;;;5.43;4.87;;;4.30;99.90;;;;;;4999049;28;20204;-77
2022/01/07 10:10:01;;;;;;;5.03;4.53;;;4.30;99.90;;;;;;4994848;28;20238;-76
2022/01/07 10:12:35;;;;;;;6.37;4.30;;;4.30;99.90;;;;;;5013578;28;20189;-76
2022/01/07 10:15:14;;;;;;;5.73;4.60;;;4.30;99.90;;;;;;5009786;28;20235;-77
2022/01/07 10:17:43;;;;;;;6.40;4.57;;;4.30;99.90;;;;;;5000407;28;20575;-75
2022/01/07 10:20:16;;;;;;;6.07;5.33;;;4.30;99.90;;;;;;5014514;28;20246;-76
2022/01/07 10:22:52;;;;;;;6.13;4.57;;;4.30;99.90;;;;;;4991409;28;20224;-77
2022/01/07 10:25:24;;;;;;;6.03;4.33;;;4.30;99.90;;;;;;5009650;28;20197;-77
2022/01/07 10:27:51;;;;;;;5.63;4.10;;;4.30;99.90;;;;;;4988456;28;20207;-77
2022/01/07 10:30:26;;;;;;;8.30;4.77;;;4.30;99.90;;;;;;5007540;28;20223;-76
2022/01/07 10:32:54;;;;;;;4.80;4.20;;;4.30;99.90;;;;;;5000145;28;20207;-79
2022/01/07 10:35:23;;;;;;;5.07;4.40;;;4.30;99.90;;;;;;5020863;28;20214;-76
2022/01/07 10:37:55;;;;;;;5.27;4.20;;;4.40;99.90;;;;;;4996930;28;20211;-76
2022/01/07 10:40:28;;;;;;;8.07;5.07;;;4.40;99.90;;;;;;5012774;28;20216;-75
2022/01/07 10:43:07;;;;;;;5.77;3.90;;;4.40;99.90;;;;;;5002094;28;20211;-77
2022/01/07 10:45:34;;;;;;;5.13;4.00;;;4.40;99.90;;;;;;4987418;28;20207;-76
2022/01/07 10:48:02;;;;;;;6.07;4.43;;;4.50;99.90;;;;;;5007025;28;20212;-79
2022/01/07 10:50:29;;;;;;;4.77;3.97;;;4.50;99.90;;;;;;4992359;28;20206;-76
2022/01/07 10:53:19;;;;;;;4.67;4.20;;;4.60;99.90;;;;;;5002630;28;20204;-76
2022/01/07 10:56:04;;;;;;;7.23;4.30;;;4.60;99.90;;;;;;5008737;28;20599;-74
2022/01/07 10:59:00;;;;;;;6.37;4.73;;;4.60;99.90;;;;;;4995547;28;20234;-74
2022/01/07 11:01:43;;;;;;;6.60;4.23;;;4.60;99.90;;;;;;5007423;28;20238;-74
2022/01/07 11:04:16;;;;;;;4.40;4.00;;;4.70;99.90;;;;;;4993007;28;20201;-75
2022/01/07 11:06:45;;;;;;;4.70;4.30;;;4.70;99.90;;;;;;5016533;28;20214;-76
2022/01/07 11:09:14;;;;;;;5.53;4.43;;;4.70;99.90;;;;;;5017442;28;20222;-75
2022/01/07 11:11:48;;;;;;;4.13;3.73;;;4.70;99.90;;;;;;5012436;28;20219;-74
2022/01/07 11:14:18;;;;;;;4.93;3.83;;;4.70;99.90;;;;;;5011971;28;20211;-75
2022/01/07 11:16:45;;;;;;;3.73;3.37;;;4.70;99.90;;;;;;5010919;28;20209;-75
2022/01/07 11:19:18;;;;;;;5.57;4.20;;;4.80;99.90;;;;;;5003659;28;20218;-75
2022/01/07 11:21:49;;;;;;;5.53;3.63;;;4.80;99.90;;;;;;4994976;28;20208;-75
2022/01/07 11:24:34;;;;;;;4.13;3.60;;;4.80;99.90;;;;;;5011106;28;20205;-75
2022/01/07 11:27:15;;;;;;;5.23;3.90;;;4.80;99.90;;;;;;4991752;28;20210;-75
2022/01/07 11:30:11;;;;;;;4.23;3.73;;;4.80;99.90;;;;;;5009775;28;20239;-75
2022/01/07 11:32:40;;;;;;;4.30;3.90;;;4.90;99.90;;;;;;5011751;28;20209;-75
2022/01/07 11:35:46;;;;;;;7.47;4.50;;;4.90;99.90;;;;;;5022483;28;20221;-74
2022/01/07 11:38:38;;;;;;;6.30;3.73;;;4.90;99.90;;;;;;5004225;28;20211;-75
2022/01/07 11:41:50;;;;;;;4.33;3.90;;;4.90;99.90;;;;;;4994630;28;20206;-76
2022/01/07 11:44:26;;;;;;;6.73;4.23;;;5.00;99.90;;;;;;4988649;28;20196;-76
2022/01/07 11:47:21;;;;;;;4.33;3.93;;;5.00;99.90;;;;;;5001998;28;20206;-76
2022/01/07 11:50:04;;;;;;;6.67;4.00;;;5.00;99.90;;;;;;4997267;28;20218;-76
2022/01/07 11:52:34;;;;;;;5.97;3.90;;;5.00;99.90;;;;;;5001292;28;20584;-76
2022/01/07 11:55:21;;;;;;;5.70;4.13;;;5.00;99.90;;;;;;4997152;28;20307;-75
2022/01/07 11:57:49;;;;;;;6.43;4.37;;;5.00;99.90;;;;;;5005699;28;20206;-76
2022/01/07 12:00:51;;;;;;;7.37;4.50;;;5.00;99.90;;;;;;5016912;28;20230;-75
2022/01/07 12:03:34;;;;;;;3.93;3.63;;;5.10;99.90;;;;;;5000839;28;20202;-76
2022/01/07 12:06:55;;;;;;;4.23;3.80;;;5.00;99.90;;;;;;5008163;28;20206;-75
2022/01/07 12:09:31;;;;;;;4.27;3.87;;;5.10;99.90;;;;;;5012080;28;20226;-75
2022/01/07 12:12:01;;;;;;;4.50;4.00;;;5.00;99.90;;;;;;5000024;28;20210;-76
2022/01/07 12:14:35;;;;;;;5.20;4.00;;;5.00;99.90;;;;;;4995068;28;20196;-75
2022/01/07 12:17:06;;;;;;;4.80;4.33;;;5.00;99.90;;;;;;4995958;28;20203;-75
2022/01/07 12:20:06;;;;;;;4.43;3.80;;;5.00;99.90;;;;;;5007986;28;20242;-75
2022/01/07 12:22:33;;;;;;;5.57;3.60;;;5.00;99.90;;;;;;5018009;28;20204;-75
2022/01/07 12:25:10;;;;;;;6.70;3.37;;;5.00;99.90;;;;;;4985551;28;20200;-75
2022/01/07 12:27:38;;;;;;;3.23;2.93;;;5.10;99.90;;;;;;4994778;28;20201;-75
2022/01/07 12:30:06;;;;;;;4.57;3.93;;;5.00;99.90;;;;;;5012432;28;20238;-75
2022/01/07 12:32:37;;;;;;;4.87;3.53;;;5.00;99.90;;;;;;5012956;28;20199;-76
2022/01/07 12:35:05;;;;;;;4.93;4.03;;;5.10;99.90;;;;;;5012804;28;20218;-76
2022/01/07 12:38:12;;;;;;;4.50;3.70;;;5.20;99.90;;;;;;4996405;28;20206;-76
2022/01/07 12:40:39;;;;;;;4.60;3.67;;;5.10;99.90;;;;;;5002457;28;20211;-75
2022/01/07 12:43:07;;;;;;;6.40;4.00;;;5.20;99.90;;;;;;4996511;28;20204;-75
2022/01/07 12:46:04;;;;;;;6.97;3.93;;;5.20;99.90;;;;;;5001887;28;20209;-75
2022/01/07 12:48:40;;;;;;;3.87;3.33;;;5.20;99.90;;;;;;4998863;28;20234;-75
2022/01/07 12:51:09;;;;;;;5.67;3.50;;;5.40;99.90;;;;;;4996281;28;20661;-75
2022/01/07 12:53:36;;;;;;;4.20;3.30;;;5.50;99.90;;;;;;5008522;28;20666;-75
2022/01/07 12:56:25;;;;;;;4.87;3.67;;;5.40;99.90;;;;;;5010964;28;20230;-75
2022/01/07 12:58:52;;;;;;;5.07;3.57;;;5.40;99.90;;;;;;5016632;28;20742;-75
2022/01/07 13:01:28;;;;;;;4.43;3.50;;;5.40;99.90;;;;;;5011839;28;20223;-75
2022/01/07 13:04:05;;;;;;;5.40;3.57;;;5.40;99.90;;;;;;5012245;28;20664;-75
2022/01/07 13:06:38;;;;;;;6.60;3.87;;;5.40;99.90;;;;;;5023306;28;20205;-75
2022/01/07 13:09:05;;;;;;;5.13;3.80;;;5.40;99.90;;;;;;5010124;28;20752;-76
2022/01/07 13:11:32;;;;;;;7.00;3.77;;;5.40;99.90;;;;;;5013130;28;20198;-75
2022/01/07 13:14:06;;;;;;;5.77;4.30;;;5.40;99.90;;;;;;4997058;28;20195;-75
2022/01/07 13:16:33;;;;;;;5.50;3.60;;;5.40;99.90;;;;;;5013645;28;20686;-75
2022/01/07 13:19:45;;;;;;;5.63;3.80;;;5.40;99.90;;;;;;5004547;28;20222;-76
2022/01/07 13:22:12;;;;;;;5.73;4.07;;;5.40;99.90;;;;;;5010196;28;20652;-76